Al Khobar, Saudi Arabia

8:31 AM AST on January 28, 2015 (GMT +0300)
Las Dunas Compound | Change Station
CLOSE
Current Station
Personal Weather Station
Location: Al Khobar, EASTERN PROVINCE
Elevation: 26 ft
Nearby Weather Stations

Elev 26 ft 26.33 °N, 50.21 °E | Updated 14 seconds ago

Clear
Clear
66.4 °F
Feels Like 66.4 °F
N
3.6
Wind Variable Wind from SE
Gusts 7.4 mph

Today
High -- | Low -- °F
--% Chance of Precip.
Yesterday
High -- | Low -- °F
Precip. -- in
6:25 AM 5:18 PM
First Quarter, 61% visible
Pressure 30.06 in
Visibility -9999.0 miles
Clouds
Dew Point 62 °F
Humidity 86%
Rainfall 0.00 in
Snow Depth Not available.
UV Not available.
Pollen Not available.
Air Quality Not available.
Flu Activity Not available.
METAR OEDF 280500Z 14012KT CAVOK 14/07 Q1018 NOSIG

More Conditions Fewer Conditions

Pressure 30.06 in
Visibility -9999.0 miles
Clouds
Dew Point 62 °F
Humidity 86%
Rainfall 0.00 in
Snow Depth Not available.
UV Not available.
Pollen Not available.
Air Quality Not available.
Flu Activity Not available.
METAR OEDF 280500Z 14012KT CAVOK 14/07 Q1018 NOSIG

More Conditions Fewer Conditions

10-Day Weather Forecast

Almanac

Astronomy

Jan. 28, 2015 Rise Set
Actual Time
Civil Twilight
Nautical Twilight
Astronomical Twilight
Moon
Length of Visible Light
Length of Day
Tomorrow will be .
, % of the Moon is Illuminated

Today's Extremes

Country Highs Country Lows

Community

WunderPhotos

Upload Photos

1,791,103 photos uploaded!

WunderBlogs® & News

Nearby

Air Quality

  Air Quality AQ Index Pollutant
Not available.

Snow Depth

Station Depth Elevation

Earthquake Activity

City Distance Mag. Time & Date
Minimum magnitude displayed is 2.5.

Coastal Water Temperatures

Place Temperature

Nearby Weather Stations